sensor_id;sensor_type;location;lat;lon;timestamp;pressure;altitude;pressure_sealevel;temperature;humidity
75627;BME280;67372;49.404;11.034;2023-02-19T00:01:22;98507.97;;;9.36;77.94
75627;BME280;67372;49.404;11.034;2023-02-19T00:03:51;98510.03;;;9.34;77.91
75627;BME280;67372;49.404;11.034;2023-02-19T00:06:19;98501.16;;;9.20;78.38
75627;BME280;67372;49.404;11.034;2023-02-19T00:08:46;98510.56;;;9.16;78.62
75627;BME280;67372;49.404;11.034;2023-02-19T00:11:18;98514.84;;;9.11;79.46
75627;BME280;67372;49.404;11.034;2023-02-19T00:13:46;98505.84;;;9.05;79.63
75627;BME280;67372;49.404;11.034;2023-02-19T00:16:16;98513.59;;;9.00;79.47
75627;BME280;67372;49.404;11.034;2023-02-19T00:18:42;98517.91;;;9.08;79.61
75627;BME280;67372;49.404;11.034;2023-02-19T00:21:09;98511.97;;;8.99;80.81
75627;BME280;67372;49.404;11.034;2023-02-19T00:23:36;98505.41;;;9.02;80.31
75627;BME280;67372;49.404;11.034;2023-02-19T00:26:20;98521.19;;;9.10;80.05
75627;BME280;67372;49.404;11.034;2023-02-19T00:28:48;98510.75;;;9.02;80.14
75627;BME280;67372;49.404;11.034;2023-02-19T00:31:27;98507.63;;;8.98;79.82
75627;BME280;67372;49.404;11.034;2023-02-19T00:34:02;98508.69;;;9.04;79.85
75627;BME280;67372;49.404;11.034;2023-02-19T00:36:30;98506.25;;;9.02;79.11
75627;BME280;67372;49.404;11.034;2023-02-19T00:38:56;98519.16;;;9.12;79.39
75627;BME280;67372;49.404;11.034;2023-02-19T00:41:23;98508.94;;;9.15;79.44
75627;BME280;67372;49.404;11.034;2023-02-19T00:46:35;98513.03;;;9.18;79.11
75627;BME280;67372;49.404;11.034;2023-02-19T00:49:04;98510.56;;;9.10;80.08
75627;BME280;67372;49.404;11.034;2023-02-19T00:51:33;98504.00;;;9.06;81.13
75627;BME280;67372;49.404;11.034;2023-02-19T00:54:00;98504.00;;;9.12;80.33
75627;BME280;67372;49.404;11.034;2023-02-19T00:56:26;98497.63;;;9.00;81.38
75627;BME280;67372;49.404;11.034;2023-02-19T00:58:53;98493.28;;;8.92;82.34
75627;BME280;67372;49.404;11.034;2023-02-19T01:01:20;98489.59;;;8.93;81.12
75627;BME280;67372;49.404;11.034;2023-02-19T01:03:47;98491.44;;;8.93;81.23
75627;BME280;67372;49.404;11.034;2023-02-19T01:06:16;98475.03;;;8.83;82.45
75627;BME280;67372;49.404;11.034;2023-02-19T01:08:43;98460.72;;;8.77;81.75
75627;BME280;67372;49.404;11.034;2023-02-19T01:11:10;98462.91;;;8.74;82.00
75627;BME280;67372;49.404;11.034;2023-02-19T01:13:38;98459.50;;;8.80;81.98
75627;BME280;67372;49.404;11.034;2023-02-19T01:16:20;98464.19;;;8.78;81.45
75627;BME280;67372;49.404;11.034;2023-02-19T01:18:47;98464.56;;;8.75;82.57
75627;BME280;67372;49.404;11.034;2023-02-19T01:21:16;98455.34;;;8.71;82.23
75627;BME280;67372;49.404;11.034;2023-02-19T01:23:43;98457.59;;;8.74;82.42
75627;BME280;67372;49.404;11.034;2023-02-19T01:26:15;98445.09;;;8.68;83.03
75627;BME280;67372;49.404;11.034;2023-02-19T01:28:42;98446.53;;;8.64;82.91
75627;BME280;67372;49.404;11.034;2023-02-19T01:31:12;98441.41;;;8.69;82.11
75627;BME280;67372;49.404;11.034;2023-02-19T01:33:43;98451.88;;;8.70;81.96
75627;BME280;67372;49.404;11.034;2023-02-19T01:36:10;98451.25;;;8.68;82.04
75627;BME280;67372;49.404;11.034;2023-02-19T01:38:36;98434.13;;;8.77;81.59
75627;BME280;67372;49.404;11.034;2023-02-19T01:41:05;98428.38;;;8.80;81.63
75627;BME280;67372;49.404;11.034;2023-02-19T01:43:33;98428.78;;;8.77;81.18
75627;BME280;67372;49.404;11.034;2023-02-19T01:46:01;98415.03;;;8.74;82.44
75627;BME280;67372;49.404;11.034;2023-02-19T01:48:34;98413.22;;;8.74;81.68
75627;BME280;67372;49.404;11.034;2023-02-19T01:51:06;98426.13;;;8.77;82.21
75627;BME280;67372;49.404;11.034;2023-02-19T01:53:42;98409.31;;;8.70;82.65
75627;BME280;67372;49.404;11.034;2023-02-19T01:56:10;98398.28;;;8.73;82.19
75627;BME280;67372;49.404;11.034;2023-02-19T01:58:38;98393.56;;;8.75;82.80
75627;BME280;67372;49.404;11.034;2023-02-19T02:01:06;98381.94;;;8.76;82.15
75627;BME280;67372;49.404;11.034;2023-02-19T02:03:38;98387.22;;;8.70;82.08
75627;BME280;67372;49.404;11.034;2023-02-19T02:06:14;98406.22;;;8.67;82.64
75627;BME280;67372;49.404;11.034;2023-02-19T02:08:43;98404.59;;;8.66;82.74
75627;BME280;67372;49.404;11.034;2023-02-19T02:11:10;98407.28;;;8.72;81.98
75627;BME280;67372;49.404;11.034;2023-02-19T02:13:37;98406.28;;;8.80;81.77
75627;BME280;67372;49.404;11.034;2023-02-19T02:16:15;98406.91;;;8.82;81.74
75627;BME280;67372;49.404;11.034;2023-02-19T02:18:52;98405.44;;;8.73;82.20
75627;BME280;67372;49.404;11.034;2023-02-19T02:26:54;98393.97;;;8.72;81.64
75627;BME280;67372;49.404;11.034;2023-02-19T02:29:31;98389.50;;;8.79;81.47
75627;BME280;67372;49.404;11.034;2023-02-19T02:32:10;98383.78;;;8.82;81.17
75627;BME280;67372;49.404;11.034;2023-02-19T02:34:47;98385.41;;;8.77;80.95
75627;BME280;67372;49.404;11.034;2023-02-19T02:37:16;98388.44;;;8.74;81.70
75627;BME280;67372;49.404;11.034;2023-02-19T02:39:44;98382.34;;;8.80;80.68
75627;BME280;67372;49.404;11.034;2023-02-19T02:42:12;98384.41;;;8.78;80.97
75627;BME280;67372;49.404;11.034;2023-02-19T02:44:39;98371.47;;;8.75;80.51
75627;BME280;67372;49.404;11.034;2023-02-19T02:47:07;98372.94;;;8.90;80.06
75627;BME280;67372;49.404;11.034;2023-02-19T02:49:35;98372.75;;;8.79;81.55
75627;BME280;67372;49.404;11.034;2023-02-19T02:52:01;98378.63;;;8.74;82.21
75627;BME280;67372;49.404;11.034;2023-02-19T02:54:31;98384.19;;;8.79;81.95
75627;BME280;67372;49.404;11.034;2023-02-19T02:56:59;98383.59;;;8.84;81.21
75627;BME280;67372;49.404;11.034;2023-02-19T02:59:31;98370.84;;;8.73;81.92
75627;BME280;67372;49.404;11.034;2023-02-19T03:02:06;98362.50;;;8.82;81.49
75627;BME280;67372;49.404;11.034;2023-02-19T03:07:10;98355.13;;;8.78;80.83
75627;BME280;67372;49.404;11.034;2023-02-19T03:09:41;98352.28;;;8.79;81.60
75627;BME280;67372;49.404;11.034;2023-02-19T03:12:13;98359.00;;;8.75;81.53
75627;BME280;67372;49.404;11.034;2023-02-19T03:14:44;98348.34;;;8.75;80.66
75627;BME280;67372;49.404;11.034;2023-02-19T03:17:18;98341.63;;;8.79;80.51
75627;BME280;67372;49.404;11.034;2023-02-19T03:19:52;98349.22;;;8.89;80.72
75627;BME280;67372;49.404;11.034;2023-02-19T03:22:24;98341.25;;;8.89;80.07
75627;BME280;67372;49.404;11.034;2023-02-19T03:25:32;98342.06;;;8.83;80.23
75627;BME280;67372;49.404;11.034;2023-02-19T03:27:51;98348.41;;;8.82;80.20
75627;BME280;67372;49.404;11.034;2023-02-19T03:30:22;98344.91;;;8.95;79.46
75627;BME280;67372;49.404;11.034;2023-02-19T03:33:21;98345.34;;;8.91;79.09
75627;BME280;67372;49.404;11.034;2023-02-19T03:35:51;98341.03;;;8.77;80.05
75627;BME280;67372;49.404;11.034;2023-02-19T03:38:26;98340.56;;;8.74;80.10
75627;BME280;67372;49.404;11.034;2023-02-19T03:41:10;98342.66;;;8.85;79.55
75627;BME280;67372;49.404;11.034;2023-02-19T03:43:56;98340.84;;;8.99;78.76
75627;BME280;67372;49.404;11.034;2023-02-19T03:49:19;98332.03;;;8.85;79.39
75627;BME280;67372;49.404;11.034;2023-02-19T03:54:37;98340.63;;;8.87;79.05
75627;BME280;67372;49.404;11.034;2023-02-19T03:57:15;98337.97;;;8.80;79.16
75627;BME280;67372;49.404;11.034;2023-02-19T03:59:58;98348.81;;;8.85;79.37
75627;BME280;67372;49.404;11.034;2023-02-19T04:02:33;98333.88;;;8.84;78.73
75627;BME280;67372;49.404;11.034;2023-02-19T04:05:09;98341.03;;;8.97;77.73
75627;BME280;67372;49.404;11.034;2023-02-19T04:07:43;98336.13;;;8.94;78.19
75627;BME280;67372;49.404;11.034;2023-02-19T04:10:12;98344.72;;;8.89;78.73
75627;BME280;67372;49.404;11.034;2023-02-19T04:12:42;98343.06;;;8.82;79.38
75627;BME280;67372;49.404;11.034;2023-02-19T04:15:13;98342.47;;;8.80;79.18
75627;BME280;67372;49.404;11.034;2023-02-19T04:17:45;98349.22;;;8.89;78.46
75627;BME280;67372;49.404;11.034;2023-02-19T04:20:14;98363.34;;;8.83;79.27
75627;BME280;67372;49.404;11.034;2023-02-19T04:22:42;98352.47;;;8.78;79.76
75627;BME280;67372;49.404;11.034;2023-02-19T04:25:09;98366.41;;;8.80;79.50
75627;BME280;67372;49.404;11.034;2023-02-19T04:27:38;98369.47;;;8.83;79.48
75627;BME280;67372;49.404;11.034;2023-02-19T04:30:07;98355.97;;;8.85;78.85
75627;BME280;67372;49.404;11.034;2023-02-19T04:32:33;98362.50;;;8.89;79.32
75627;BME280;67372;49.404;11.034;2023-02-19T04:35:00;98360.47;;;8.91;79.01
75627;BME280;67372;49.404;11.034;2023-02-19T04:37:26;98364.75;;;8.85;79.38
75627;BME280;67372;49.404;11.034;2023-02-19T04:39:52;98361.28;;;8.78;79.37
75627;BME280;67372;49.404;11.034;2023-02-19T04:42:19;98364.50;;;8.74;79.61
75627;BME280;67372;49.404;11.034;2023-02-19T04:44:45;98359.03;;;8.82;79.04
75627;BME280;67372;49.404;11.034;2023-02-19T04:47:11;98347.78;;;8.80;79.12
75627;BME280;67372;49.404;11.034;2023-02-19T04:49:38;98354.53;;;8.82;79.51
75627;BME280;67372;49.404;11.034;2023-02-19T04:52:04;98358.19;;;8.75;79.33
75627;BME280;67372;49.404;11.034;2023-02-19T04:54:30;98358.81;;;8.77;79.30
75627;BME280;67372;49.404;11.034;2023-02-19T04:56:57;98367.00;;;8.82;79.37
75627;BME280;67372;49.404;11.034;2023-02-19T04:59:23;98363.28;;;8.70;79.79
75627;BME280;67372;49.404;11.034;2023-02-19T05:01:49;98372.13;;;8.77;78.96
75627;BME280;67372;49.404;11.034;2023-02-19T05:04:16;98370.06;;;8.79;78.91
75627;BME280;67372;49.404;11.034;2023-02-19T05:06:42;98366.16;;;8.75;79.42
75627;BME280;67372;49.404;11.034;2023-02-19T05:09:08;98375.41;;;8.92;78.33
75627;BME280;67372;49.404;11.034;2023-02-19T05:11:35;98375.19;;;8.87;78.05
75627;BME280;67372;49.404;11.034;2023-02-19T05:14:01;98373.56;;;8.86;78.02
75627;BME280;67372;49.404;11.034;2023-02-19T05:16:28;98364.16;;;8.83;78.30
75627;BME280;67372;49.404;11.034;2023-02-19T05:18:54;98370.50;;;8.82;78.21
75627;BME280;67372;49.404;11.034;2023-02-19T05:21:20;98362.47;;;8.69;78.63
75627;BME280;67372;49.404;11.034;2023-02-19T05:23:47;98357.34;;;8.74;78.15
75627;BME280;67372;49.404;11.034;2023-02-19T05:26:16;98367.81;;;8.76;78.58
75627;BME280;67372;49.404;11.034;2023-02-19T05:28:47;98362.72;;;8.81;78.55
75627;BME280;67372;49.404;11.034;2023-02-19T05:31:14;98363.50;;;8.75;78.26
75627;BME280;67372;49.404;11.034;2023-02-19T05:33:41;98357.81;;;8.78;78.11
75627;BME280;67372;49.404;11.034;2023-02-19T05:36:10;98358.63;;;8.78;77.72
75627;BME280;67372;49.404;11.034;2023-02-19T05:38:37;98360.47;;;8.84;77.37
75627;BME280;67372;49.404;11.034;2023-02-19T05:41:12;98360.06;;;8.87;77.57
75627;BME280;67372;49.404;11.034;2023-02-19T05:43:40;98351.88;;;8.82;77.21
75627;BME280;67372;49.404;11.034;2023-02-19T05:46:08;98358.63;;;8.78;77.33
75627;BME280;67372;49.404;11.034;2023-02-19T05:48:34;98369.47;;;8.97;76.25
75627;BME280;67372;49.404;11.034;2023-02-19T05:51:02;98371.94;;;8.91;76.59
75627;BME280;67372;49.404;11.034;2023-02-19T05:53:29;98373.56;;;8.92;76.34
75627;BME280;67372;49.404;11.034;2023-02-19T05:55:56;98370.69;;;8.87;76.61
75627;BME280;67372;49.404;11.034;2023-02-19T05:58:22;98371.31;;;8.83;77.50
75627;BME280;67372;49.404;11.034;2023-02-19T06:00:49;98361.06;;;8.80;77.72
75627;BME280;67372;49.404;11.034;2023-02-19T06:03:15;98372.13;;;8.90;77.19
75627;BME280;67372;49.404;11.034;2023-02-19T06:05:41;98380.72;;;8.85;77.06
75627;BME280;67372;49.404;11.034;2023-02-19T06:08:09;98381.97;;;8.89;77.21
75627;BME280;67372;49.404;11.034;2023-02-19T06:10:37;98378.25;;;8.77;78.32
75627;BME280;67372;49.404;11.034;2023-02-19T06:13:04;98388.66;;;8.72;77.70
75627;BME280;67372;49.404;11.034;2023-02-19T06:15:30;98395.25;;;8.76;78.62
75627;BME280;67372;49.404;11.034;2023-02-19T06:17:57;98385.41;;;8.77;78.18
75627;BME280;67372;49.404;11.034;2023-02-19T06:20:23;98401.34;;;8.70;78.39
75627;BME280;67372;49.404;11.034;2023-02-19T06:22:51;98409.97;;;8.79;78.54
75627;BME280;67372;49.404;11.034;2023-02-19T06:25:18;98408.53;;;8.76;78.06
75627;BME280;67372;49.404;11.034;2023-02-19T06:27:45;98417.13;;;8.78;78.25
75627;BME280;67372;49.404;11.034;2023-02-19T06:30:11;98409.31;;;8.70;78.15
75627;BME280;67372;49.404;11.034;2023-02-19T06:32:38;98410.75;;;8.73;77.51
75627;BME280;67372;49.404;11.034;2023-02-19T06:35:04;98409.53;;;8.75;77.88
75627;BME280;67372;49.404;11.034;2023-02-19T06:37:31;98411.00;;;8.84;77.49
75627;BME280;67372;49.404;11.034;2023-02-19T06:39:57;98416.53;;;8.89;75.89
75627;BME280;67372;49.404;11.034;2023-02-19T06:42:23;98423.09;;;8.93;76.32
75627;BME280;67372;49.404;11.034;2023-02-19T06:44:50;98417.34;;;8.83;76.53
75627;BME280;67372;49.404;11.034;2023-02-19T06:47:16;98416.13;;;8.86;76.12
75627;BME280;67372;49.404;11.034;2023-02-19T06:49:42;98417.75;;;8.80;76.90
75627;BME280;67372;49.404;11.034;2023-02-19T06:52:09;98433.72;;;8.80;76.92
75627;BME280;67372;49.404;11.034;2023-02-19T06:54:35;98440.66;;;8.81;76.70
75627;BME280;67372;49.404;11.034;2023-02-19T06:57:02;98444.78;;;8.90;76.48
75627;BME280;67372;49.404;11.034;2023-02-19T06:59:28;98446.41;;;8.91;75.62
75627;BME280;67372;49.404;11.034;2023-02-19T07:01:54;98463.22;;;8.92;76.33
75627;BME280;67372;49.404;11.034;2023-02-19T07:04:20;98458.34;;;9.02;75.09
75627;BME280;67372;49.404;11.034;2023-02-19T07:06:47;98465.06;;;8.98;76.02
75627;BME280;67372;49.404;11.034;2023-02-19T07:09:13;98462.41;;;8.98;75.16
75627;BME280;67372;49.404;11.034;2023-02-19T07:11:40;98462.03;;;9.01;75.92
75627;BME280;67372;49.404;11.034;2023-02-19T07:14:07;98463.06;;;9.00;75.42
75627;BME280;67372;49.404;11.034;2023-02-19T07:16:34;98466.31;;;9.02;75.18
75627;BME280;67372;49.404;11.034;2023-02-19T07:19:01;98474.06;;;8.97;75.74
75627;BME280;67372;49.404;11.034;2023-02-19T07:21:28;98473.69;;;9.00;75.71
75627;BME280;67372;49.404;11.034;2023-02-19T07:23:55;98479.84;;;9.01;75.36
75627;BME280;67372;49.404;11.034;2023-02-19T07:26:22;98491.28;;;9.01;75.80
75627;BME280;67372;49.404;11.034;2023-02-19T07:28:50;98485.78;;;9.09;75.22
75627;BME280;67372;49.404;11.034;2023-02-19T07:31:17;98494.78;;;9.08;75.19
75627;BME280;67372;49.404;11.034;2023-02-19T07:33:45;98495.19;;;9.05;75.33
75627;BME280;67372;49.404;11.034;2023-02-19T07:36:12;98501.53;;;9.04;75.75
75627;BME280;67372;49.404;11.034;2023-02-19T07:38:39;98496.16;;;8.98;75.83
75627;BME280;67372;49.404;11.034;2023-02-19T07:41:05;98491.88;;;8.97;75.81
75627;BME280;67372;49.404;11.034;2023-02-19T07:43:34;98494.31;;;8.98;75.28
75627;BME280;67372;49.404;11.034;2023-02-19T07:46:05;98502.78;;;9.08;75.17
75627;BME280;67372;49.404;11.034;2023-02-19T07:48:34;98498.69;;;9.19;74.33
75627;BME280;67372;49.404;11.034;2023-02-19T07:51:02;98502.59;;;9.16;75.14
75627;BME280;67372;49.404;11.034;2023-02-19T07:53:30;98507.28;;;9.14;75.39
75627;BME280;67372;49.404;11.034;2023-02-19T07:56:00;98501.41;;;9.26;74.85
75627;BME280;67372;49.404;11.034;2023-02-19T07:58:28;98507.16;;;9.29;75.28
75627;BME280;67372;49.404;11.034;2023-02-19T08:00:54;98506.53;;;9.34;74.03
75627;BME280;67372;49.404;11.034;2023-02-19T08:03:21;98510.22;;;9.26;75.15
75627;BME280;67372;49.404;11.034;2023-02-19T08:05:47;98512.28;;;9.31;74.38
75627;BME280;67372;49.404;11.034;2023-02-19T08:08:15;98502.84;;;9.28;74.33
75627;BME280;67372;49.404;11.034;2023-02-19T08:10:41;98508.81;;;9.37;74.27
75627;BME280;67372;49.404;11.034;2023-02-19T08:13:11;98507.00;;;9.50;72.84
75627;BME280;67372;49.404;11.034;2023-02-19T08:15:38;98504.09;;;9.45;74.57
75627;BME280;67372;49.404;11.034;2023-02-19T08:18:04;98501.69;;;9.50;73.37
75627;BME280;67372;49.404;11.034;2023-02-19T08:20:31;98502.09;;;9.61;73.30
75627;BME280;67372;49.404;11.034;2023-02-19T08:22:57;98504.38;;;9.70;72.46
75627;BME280;67372;49.404;11.034;2023-02-19T08:25:23;98513.41;;;9.76;72.65
75627;BME280;67372;49.404;11.034;2023-02-19T08:27:50;98513.59;;;9.74;72.52
75627;BME280;67372;49.404;11.034;2023-02-19T08:30:16;98504.38;;;9.70;72.63
75627;BME280;67372;49.404;11.034;2023-02-19T08:32:43;98521.19;;;9.77;72.04
75627;BME280;67372;49.404;11.034;2023-02-19T08:35:09;98524.47;;;9.73;72.13
75627;BME280;67372;49.404;11.034;2023-02-19T08:37:35;98529.78;;;9.86;72.58
75627;BME280;67372;49.404;11.034;2023-02-19T08:40:02;98537.16;;;9.84;71.79
75627;BME280;67372;49.404;11.034;2023-02-19T08:42:28;98544.56;;;9.95;71.67
75627;BME280;67372;49.404;11.034;2023-02-19T08:44:54;98544.75;;;9.87;71.55
75627;BME280;67372;49.404;11.034;2023-02-19T08:47:21;98559.34;;;9.98;71.13
75627;BME280;67372;49.404;11.034;2023-02-19T08:49:47;98552.13;;;9.92;71.53
75627;BME280;67372;49.404;11.034;2023-02-19T08:52:13;98565.47;;;9.98;71.01
75627;BME280;67372;49.404;11.034;2023-02-19T08:54:40;98562.19;;;9.96;72.02
75627;BME280;67372;49.404;11.034;2023-02-19T08:57:06;98565.47;;;10.05;71.96
75627;BME280;67372;49.404;11.034;2023-02-19T08:59:33;98573.88;;;10.08;70.91
75627;BME280;67372;49.404;11.034;2023-02-19T09:01:59;98569.16;;;10.10;70.33
75627;BME280;67372;49.404;11.034;2023-02-19T09:04:25;98571.63;;;10.12;70.40
75627;BME280;67372;49.404;11.034;2023-02-19T09:06:52;98573.47;;;10.11;70.69
75627;BME280;67372;49.404;11.034;2023-02-19T09:09:18;98566.28;;;10.12;70.60
75627;BME280;67372;49.404;11.034;2023-02-19T09:11:45;98581.09;;;10.34;69.61
75627;BME280;67372;49.404;11.034;2023-02-19T09:14:14;98582.94;;;10.34;69.47
75627;BME280;67372;49.404;11.034;2023-02-19T09:16:40;98580.69;;;10.37;69.55
75627;BME280;67372;49.404;11.034;2023-02-19T09:19:07;98586.22;;;10.36;69.59
75627;BME280;67372;49.404;11.034;2023-02-19T09:21:33;98586.88;;;10.44;68.94
75627;BME280;67372;49.404;11.034;2023-02-19T09:23:59;98597.13;;;10.48;68.66
75627;BME280;67372;49.404;11.034;2023-02-19T09:26:26;98589.31;;;10.53;69.65
75627;BME280;67372;49.404;11.034;2023-02-19T09:28:52;98596.91;;;10.36;69.81
75627;BME280;67372;49.404;11.034;2023-02-19T09:31:18;98605.72;;;10.36;69.27
75627;BME280;67372;49.404;11.034;2023-02-19T09:33:46;98608.38;;;10.36;69.21
75627;BME280;67372;49.404;11.034;2023-02-19T09:36:14;98610.63;;;10.20;70.13
75627;BME280;67372;49.404;11.034;2023-02-19T09:38:41;98614.75;;;10.22;69.98
75627;BME280;67372;49.404;11.034;2023-02-19T09:41:17;98604.28;;;10.21;69.46
75627;BME280;67372;49.404;11.034;2023-02-19T09:43:47;98613.72;;;10.30;69.69
75627;BME280;67372;49.404;11.034;2023-02-19T09:46:29;98613.94;;;10.41;69.43
75627;BME280;67372;49.404;11.034;2023-02-19T09:49:12;98620.91;;;10.36;69.15
75627;BME280;67372;49.404;11.034;2023-02-19T09:51:43;98626.84;;;10.58;68.86
75627;BME280;67372;49.404;11.034;2023-02-19T09:54:19;98617.00;;;10.58;69.26
75627;BME280;67372;49.404;11.034;2023-02-19T09:56:46;98625.41;;;10.62;68.70
75627;BME280;67372;49.404;11.034;2023-02-19T09:59:19;98617.00;;;10.52;68.76
75627;BME280;67372;49.404;11.034;2023-02-19T10:01:48;98613.53;;;10.44;68.95
75627;BME280;67372;49.404;11.034;2023-02-19T10:04:17;98616.59;;;10.48;69.55
75627;BME280;67372;49.404;11.034;2023-02-19T10:06:43;98610.44;;;10.48;69.39
75627;BME280;67372;49.404;11.034;2023-02-19T10:09:17;98614.56;;;10.43;70.01
75627;BME280;67372;49.404;11.034;2023-02-19T10:11:45;98608.63;;;10.41;69.95
75627;BME280;67372;49.404;11.034;2023-02-19T10:14:18;98612.31;;;10.47;70.15
75627;BME280;67372;49.404;11.034;2023-02-19T10:16:47;98617.44;;;10.42;69.61
75627;BME280;67372;49.404;11.034;2023-02-19T10:19:15;98616.00;;;10.46;68.60
75627;BME280;67372;49.404;11.034;2023-02-19T10:21:42;98636.09;;;10.49;68.51
75627;BME280;67372;49.404;11.034;2023-02-19T10:24:17;98618.25;;;10.49;68.58
75627;BME280;67372;49.404;11.034;2023-02-19T10:26:46;98631.38;;;10.51;68.31
75627;BME280;67372;49.404;11.034;2023-02-19T10:29:12;98638.34;;;10.45;68.20
75627;BME280;67372;49.404;11.034;2023-02-19T10:31:39;98639.59;;;10.49;68.21
75627;BME280;67372;49.404;11.034;2023-02-19T10:34:19;98638.97;;;10.54;68.08
75627;BME280;67372;49.404;11.034;2023-02-19T10:36:48;98646.97;;;10.54;69.26
75627;BME280;67372;49.404;11.034;2023-02-19T10:41:49;98633.81;;;10.59;68.45
75627;BME280;67372;49.404;11.034;2023-02-19T10:44:27;98639.38;;;10.77;67.68
75627;BME280;67372;49.404;11.034;2023-02-19T10:46:56;98642.66;;;10.72;67.84
75627;BME280;67372;49.404;11.034;2023-02-19T10:49:39;98652.50;;;10.85;67.42
75627;BME280;67372;49.404;11.034;2023-02-19T10:52:16;98653.09;;;10.87;66.10
75627;BME280;67372;49.404;11.034;2023-02-19T10:54:44;98649.41;;;10.88;66.77
75627;BME280;67372;49.404;11.034;2023-02-19T10:57:32;98650.84;;;10.84;65.96
75627;BME280;67372;49.404;11.034;2023-02-19T11:02:41;98649.19;;;11.03;65.71
75627;BME280;67372;49.404;11.034;2023-02-19T11:07:35;98649.41;;;11.01;65.38
75627;BME280;67372;49.404;11.034;2023-02-19T11:10:03;98651.88;;;10.96;66.74
75627;BME280;67372;49.404;11.034;2023-02-19T11:12:32;98667.47;;;10.86;66.22
75627;BME280;67372;49.404;11.034;2023-02-19T11:15:20;98660.28;;;10.87;66.46
75627;BME280;67372;49.404;11.034;2023-02-19T11:20:49;98662.97;;;10.80;67.88
75627;BME280;67372;49.404;11.034;2023-02-19T11:23:18;98668.09;;;10.88;67.72
75627;BME280;67372;49.404;11.034;2023-02-19T11:25:47;98674.47;;;10.74;68.68
75627;BME280;67372;49.404;11.034;2023-02-19T11:28:31;98677.56;;;10.71;70.29
75627;BME280;67372;49.404;11.034;2023-02-19T11:33:57;98684.50;;;10.32;72.68
75627;BME280;67372;49.404;11.034;2023-02-19T11:36:36;98690.63;;;10.26;72.44
75627;BME280;67372;49.404;11.034;2023-02-19T11:42:03;98695.06;;;10.12;73.34
75627;BME280;67372;49.404;11.034;2023-02-19T11:44:49;98692.81;;;10.03;74.32
75627;BME280;67372;49.404;11.034;2023-02-19T11:47:50;98692.41;;;10.06;72.53
75627;BME280;67372;49.404;11.034;2023-02-19T11:53:28;98695.00;;;9.93;73.78
75627;BME280;67372;49.404;11.034;2023-02-19T12:04:55;98701.91;;;10.22;71.14
75627;BME280;67372;49.404;11.034;2023-02-19T12:08:04;98703.75;;;10.21;71.44
75627;BME280;67372;49.404;11.034;2023-02-19T12:10:47;98704.50;;;10.08;71.85
75627;BME280;67372;49.404;11.034;2023-02-19T12:13:26;98708.28;;;10.21;71.81
75627;BME280;67372;49.404;11.034;2023-02-19T12:16:26;98716.69;;;10.24;71.50
75627;BME280;67372;49.404;11.034;2023-02-19T12:24:56;98706.22;;;10.36;70.52
75627;BME280;67372;49.404;11.034;2023-02-19T12:43:28;98677.75;;;10.89;70.06
75627;BME280;67372;49.404;11.034;2023-02-19T12:46:02;98687.38;;;11.10;69.45
75627;BME280;67372;49.404;11.034;2023-02-19T12:51:08;98675.81;;;11.43;66.87
75627;BME280;67372;49.404;11.034;2023-02-19T12:53:53;98672.72;;;11.46;65.64
75627;BME280;67372;49.404;11.034;2023-02-19T12:56:40;98683.09;;;11.74;64.02
75627;BME280;67372;49.404;11.034;2023-02-19T12:59:13;98685.56;;;11.75;64.44
75627;BME280;67372;49.404;11.034;2023-02-19T13:01:50;98665.00;;;11.76;64.78
75627;BME280;67372;49.404;11.034;2023-02-19T13:04:24;98681.66;;;11.84;64.03
75627;BME280;67372;49.404;11.034;2023-02-19T13:12:13;98690.09;;;11.75;61.98
75627;BME280;67372;49.404;11.034;2023-02-19T13:14:46;98681.09;;;11.62;62.69
75627;BME280;67372;49.404;11.034;2023-02-19T13:17:32;98685.66;;;11.49;63.10
75627;BME280;67372;49.404;11.034;2023-02-19T13:20:13;98688.38;;;11.29;63.80
75627;BME280;67372;49.404;11.034;2023-02-19T13:22:42;98679.34;;;11.23;63.73
75627;BME280;67372;49.404;11.034;2023-02-19T13:25:11;98692.50;;;11.12;64.86
75627;BME280;67372;49.404;11.034;2023-02-19T13:27:57;98691.91;;;10.96;65.10
75627;BME280;67372;49.404;11.034;2023-02-19T13:30:39;98706.09;;;10.90;66.43
75627;BME280;67372;49.404;11.034;2023-02-19T13:33:24;98719.03;;;10.67;71.51
75627;BME280;67372;49.404;11.034;2023-02-19T13:36:24;98722.47;;;10.48;69.38
75627;BME280;67372;49.404;11.034;2023-02-19T13:38:52;98719.59;;;10.42;71.38
75627;BME280;67372;49.404;11.034;2023-02-19T13:41:27;98710.78;;;10.49;69.78
75627;BME280;67372;49.404;11.034;2023-02-19T13:43:58;98705.25;;;10.63;69.39
75627;BME280;67372;49.404;11.034;2023-02-19T13:46:39;98698.88;;;10.51;69.75
75627;BME280;67372;49.404;11.034;2023-02-19T13:51:56;98703.81;;;10.61;69.97
75627;BME280;67372;49.404;11.034;2023-02-19T13:59:56;98707.50;;;10.60;67.26
75627;BME280;67372;49.404;11.034;2023-02-19T14:02:26;98720.47;;;10.69;67.81
75627;BME280;67372;49.404;11.034;2023-02-19T14:07:36;98716.16;;;10.75;66.80
75627;BME280;67372;49.404;11.034;2023-02-19T14:10:10;98734.41;;;10.65;67.78
75627;BME280;67372;49.404;11.034;2023-02-19T14:12:37;98740.38;;;10.67;67.67
75627;BME280;67372;49.404;11.034;2023-02-19T14:18:52;98748.91;;;10.36;69.55
75627;BME280;67372;49.404;11.034;2023-02-19T14:21:05;98754.03;;;10.31;68.79
75627;BME280;67372;49.404;11.034;2023-02-19T14:23:32;98747.78;;;10.17;69.97
75627;BME280;67372;49.404;11.034;2023-02-19T14:25:59;98751.06;;;10.12;69.14
75627;BME280;67372;49.404;11.034;2023-02-19T14:28:35;98764.78;;;10.16;70.07
75627;BME280;67372;49.404;11.034;2023-02-19T14:31:23;98752.88;;;10.05;70.07
75627;BME280;67372;49.404;11.034;2023-02-19T14:33:54;98759.00;;;9.99;70.33
75627;BME280;67372;49.404;11.034;2023-02-19T14:36:51;98755.31;;;9.94;70.54
75627;BME280;67372;49.404;11.034;2023-02-19T14:39:22;98762.63;;;9.85;70.97
75627;BME280;67372;49.404;11.034;2023-02-19T14:41:52;98772.03;;;9.81;70.34
75627;BME280;67372;49.404;11.034;2023-02-19T14:44:26;98766.50;;;9.76;70.57